岡山グライダークラブ活動状況掲示板あなたは無料カウンター人目の訪問者です

岡山グライダークラブ
岡山市浦安南町639-1 岡南飛行場
 使用機:シャイベ式 SF25C型 ファルケ   JA2330
      ヴァレンティン式17E型 タイフーン  JA2342
 練習日:毎日曜日  クラブルーム:電話 086-265-1810
この掲示板は岡山グライダークラブの活動状況をお知らせする掲示板です。
!!!この掲示板は投稿規制をしています。!!!
クラブ関連各種情報は 岡山グライダークラブクラブルーム      を       .
  ブリーフイング情報は  岡山グライダークラブブリーフィングルーム  をご覧下さい。 .
※写真はクリックすると拡大して見ることが出来ます。
岡南飛行場へのアクセス等は 岡南飛行場管理事務所 をご覧ください。
クラブの ホームページ ができました。

 
10月13日
by OGC at 2019/10/13(日) 23:42:21 No.20191013234026  削除コメント
1477 x 1108 x 78,424バイト <この画像は大きいので別画面で表示します>
No.1

10月13日
本日の参加者
  会員      15名
  その他      0名


@本日の様子




METAR
RJBK 130000Z 33004KT 280V030 25KM FEW025CU SCT035CU 21/11 Q1017 A3005
RJOB 130000Z 01011KT 340V040 9999 FEW025 19/11 Q1017
RJOT 130000Z 28005KT 240V330 9999 FEW025 19/10 Q1018
RJOA 130000Z 03010KT 340V060 9999 FEW015 SCT025 17/06 Q1018
TAF
RJOB 122311Z 1300/1406 01014KT 9999 FEW030
         TEMPO 1300/1303 01015G25KT
         BECMG 1310/1312 02004KT
RJOT 22307Z 1300/1406 24005KT 9999 FEW030
         BECMG 1301/1303 06007KT
         BECMG 1315/1318 32005KT
RJOA 122305Z 1300/1406 04010KT 9999 FEW030
         BECMG 1315/1318 35005KT

本日は、心配していた台風19号の影響もほとんどなく、訓練生は高松空港に行って来たり、TGL訓練したり、楽しく訓練していました。
日没が段々と早くなって、今までのように2フライトはできなくなりました。

解散    18:00

1番機  10:30離陸 撤収機  17:25着陸 

SF25C JA2330 ファルケ     09Flt.3h50min  
17E   JA2342 タイフーン    03Flt.1h25min  
合計                    12Flt.5h15min

    << 戻る || ホームページ || 最新の掲示板へ